sensor_id;sensor_type;location;lat;lon;timestamp;pressure;altitude;pressure_sealevel;temperature;humidity
11099;BME280;12223;42.650;23.364;2023-01-08T00:00:10;95240.75;;;1.53;100.00
11099;BME280;12223;42.650;23.364;2023-01-08T00:02:37;95233.25;;;1.50;100.00
11099;BME280;12223;42.650;23.364;2023-01-08T00:05:04;95232.91;;;1.45;100.00
11099;BME280;12223;42.650;23.364;2023-01-08T00:07:31;95232.28;;;1.51;100.00
11099;BME280;12223;42.650;23.364;2023-01-08T00:09:58;95224.78;;;1.48;100.00
11099;BME280;12223;42.650;23.364;2023-01-08T00:12:25;95229.31;;;1.46;100.00
11099;BME280;12223;42.650;23.364;2023-01-08T00:14:52;95227.72;;;1.27;100.00
11099;BME280;12223;42.650;23.364;2023-01-08T00:17:20;95218.59;;;1.23;100.00
11099;BME280;12223;42.650;23.364;2023-01-08T00:19:46;95221.13;;;1.33;100.00
11099;BME280;12223;42.650;23.364;2023-01-08T00:22:13;95222.09;;;1.32;100.00
11099;BME280;12223;42.650;23.364;2023-01-08T00:24:40;95228.91;;;1.33;100.00
11099;BME280;12223;42.650;23.364;2023-01-08T00:27:07;95223.03;;;1.31;100.00
11099;BME280;12223;42.650;23.364;2023-01-08T00:29:33;95229.91;;;1.40;100.00
11099;BME280;12223;42.650;23.364;2023-01-08T00:32:02;95227.34;;;1.22;100.00
11099;BME280;12223;42.650;23.364;2023-01-08T00:34:30;95226.31;;;1.15;100.00
11099;BME280;12223;42.650;23.364;2023-01-08T00:36:57;95233.19;;;0.98;100.00
11099;BME280;12223;42.650;23.364;2023-01-08T00:39:23;95231.41;;;0.81;100.00
11099;BME280;12223;42.650;23.364;2023-01-08T00:41:50;95236.53;;;0.91;100.00
11099;BME280;12223;42.650;23.364;2023-01-08T00:44:17;95226.72;;;0.85;100.00
11099;BME280;12223;42.650;23.364;2023-01-08T00:46:44;95231.78;;;0.86;100.00
11099;BME280;12223;42.650;23.364;2023-01-08T00:49:10;95223.97;;;0.86;100.00
11099;BME280;12223;42.650;23.364;2023-01-08T00:51:38;95226.13;;;0.91;100.00
11099;BME280;12223;42.650;23.364;2023-01-08T00:54:05;95224.94;;;0.85;100.00
11099;BME280;12223;42.650;23.364;2023-01-08T00:56:32;95222.47;;;0.84;100.00
11099;BME280;12223;42.650;23.364;2023-01-08T00:58:59;95209.84;;;0.71;100.00
11099;BME280;12223;42.650;23.364;2023-01-08T01:01:26;95222.78;;;0.80;100.00
11099;BME280;12223;42.650;23.364;2023-01-08T01:03:52;95231.00;;;0.76;100.00
11099;BME280;12223;42.650;23.364;2023-01-08T01:06:19;95227.22;;;0.70;100.00
11099;BME280;12223;42.650;23.364;2023-01-08T01:08:47;95217.50;;;0.55;100.00
11099;BME280;12223;42.650;23.364;2023-01-08T01:11:17;95226.72;;;0.67;100.00
11099;BME280;12223;42.650;23.364;2023-01-08T01:13:45;95217.66;;;0.71;100.00
11099;BME280;12223;42.650;23.364;2023-01-08T01:16:12;95216.69;;;0.72;100.00
11099;BME280;12223;42.650;23.364;2023-01-08T01:18:38;95218.19;;;0.74;100.00
11099;BME280;12223;42.650;23.364;2023-01-08T01:21:09;95215.81;;;0.81;100.00
11099;BME280;12223;42.650;23.364;2023-01-08T01:23:36;95213.28;;;0.71;100.00
11099;BME280;12223;42.650;23.364;2023-01-08T01:26:04;95212.44;;;0.71;100.00
11099;BME280;12223;42.650;23.364;2023-01-08T01:28:31;95214.09;;;0.72;100.00
11099;BME280;12223;42.650;23.364;2023-01-08T01:30:58;95214.91;;;0.55;100.00
11099;BME280;12223;42.650;23.364;2023-01-08T01:33:28;95209.94;;;0.61;100.00
11099;BME280;12223;42.650;23.364;2023-01-08T01:36:01;95217.97;;;0.50;100.00
11099;BME280;12223;42.650;23.364;2023-01-08T01:38:28;95206.88;;;0.48;100.00
11099;BME280;12223;42.650;23.364;2023-01-08T01:40:55;95212.91;;;0.49;100.00
11099;BME280;12223;42.650;23.364;2023-01-08T01:43:35;95210.16;;;0.50;100.00
11099;BME280;12223;42.650;23.364;2023-01-08T01:46:02;95203.16;;;0.51;100.00
11099;BME280;12223;42.650;23.364;2023-01-08T01:48:29;95195.53;;;0.49;100.00
11099;BME280;12223;42.650;23.364;2023-01-08T01:50:56;95195.66;;;0.48;100.00
11099;BME280;12223;42.650;23.364;2023-01-08T01:53:26;95191.28;;;0.30;100.00
11099;BME280;12223;42.650;23.364;2023-01-08T01:55:54;95191.06;;;0.42;100.00
11099;BME280;12223;42.650;23.364;2023-01-08T01:58:23;95192.13;;;0.49;100.00
11099;BME280;12223;42.650;23.364;2023-01-08T02:00:53;95191.88;;;0.60;100.00
11099;BME280;12223;42.650;23.364;2023-01-08T02:03:22;95188.78;;;0.56;100.00
11099;BME280;12223;42.650;23.364;2023-01-08T02:05:53;95191.44;;;0.47;100.00
11099;BME280;12223;42.650;23.364;2023-01-08T02:08:29;95189.19;;;0.52;100.00
11099;BME280;12223;42.650;23.364;2023-01-08T02:11:05;95187.16;;;0.55;100.00
11099;BME280;12223;42.650;23.364;2023-01-08T02:13:37;95177.56;;;0.56;100.00
11099;BME280;12223;42.650;23.364;2023-01-08T02:16:11;95184.19;;;0.50;100.00
11099;BME280;12223;42.650;23.364;2023-01-08T02:18:45;95178.81;;;0.52;100.00
11099;BME280;12223;42.650;23.364;2023-01-08T02:21:14;95168.94;;;0.55;100.00
11099;BME280;12223;42.650;23.364;2023-01-08T02:23:46;95170.41;;;0.58;100.00
11099;BME280;12223;42.650;23.364;2023-01-08T02:26:18;95164.63;;;0.46;100.00
11099;BME280;12223;42.650;23.364;2023-01-08T02:28:51;95160.78;;;0.50;100.00
11099;BME280;12223;42.650;23.364;2023-01-08T02:31:21;95157.19;;;0.51;100.00
11099;BME280;12223;42.650;23.364;2023-01-08T02:33:50;95166.81;;;0.68;100.00
11099;BME280;12223;42.650;23.364;2023-01-08T02:36:28;95165.16;;;0.67;100.00
11099;BME280;12223;42.650;23.364;2023-01-08T02:39:16;95161.44;;;0.52;100.00
11099;BME280;12223;42.650;23.364;2023-01-08T02:41:59;95166.22;;;0.57;100.00
11099;BME280;12223;42.650;23.364;2023-01-08T02:44:35;95169.09;;;0.54;100.00
11099;BME280;12223;42.650;23.364;2023-01-08T02:47:09;95162.13;;;0.36;100.00
11099;BME280;12223;42.650;23.364;2023-01-08T02:49:40;95161.56;;;0.33;100.00
11099;BME280;12223;42.650;23.364;2023-01-08T02:52:09;95156.19;;;0.44;100.00
11099;BME280;12223;42.650;23.364;2023-01-08T02:54:38;95156.56;;;0.49;100.00
11099;BME280;12223;42.650;23.364;2023-01-08T02:57:10;95154.16;;;0.38;100.00
11099;BME280;12223;42.650;23.364;2023-01-08T02:59:39;95160.25;;;0.29;100.00
11099;BME280;12223;42.650;23.364;2023-01-08T03:02:09;95162.47;;;0.06;100.00
11099;BME280;12223;42.650;23.364;2023-01-08T03:04:41;95166.63;;;0.17;100.00
11099;BME280;12223;42.650;23.364;2023-01-08T03:07:10;95174.41;;;0.17;100.00
11099;BME280;12223;42.650;23.364;2023-01-08T03:09:37;95168.69;;;0.13;100.00
11099;BME280;12223;42.650;23.364;2023-01-08T03:12:08;95172.84;;;0.06;100.00
11099;BME280;12223;42.650;23.364;2023-01-08T03:14:42;95171.09;;;-0.03;100.00
11099;BME280;12223;42.650;23.364;2023-01-08T03:17:16;95163.28;;;-0.21;100.00
11099;BME280;12223;42.650;23.364;2023-01-08T03:19:48;95163.53;;;-0.14;100.00
11099;BME280;12223;42.650;23.364;2023-01-08T03:22:16;95160.31;;;-0.35;100.00
11099;BME280;12223;42.650;23.364;2023-01-08T03:24:45;95155.75;;;-0.24;100.00
11099;BME280;12223;42.650;23.364;2023-01-08T03:27:15;95157.78;;;-0.18;100.00
11099;BME280;12223;42.650;23.364;2023-01-08T03:29:48;95156.22;;;-0.01;100.00
11099;BME280;12223;42.650;23.364;2023-01-08T03:32:17;95165.06;;;0.06;100.00
11099;BME280;12223;42.650;23.364;2023-01-08T03:34:47;95158.28;;;0.13;100.00
11099;BME280;12223;42.650;23.364;2023-01-08T03:37:18;95152.25;;;-0.05;100.00
11099;BME280;12223;42.650;23.364;2023-01-08T03:39:51;95153.69;;;0.07;100.00
11099;BME280;12223;42.650;23.364;2023-01-08T03:42:20;95156.75;;;0.20;100.00
11099;BME280;12223;42.650;23.364;2023-01-08T03:44:49;95154.44;;;-0.01;100.00
11099;BME280;12223;42.650;23.364;2023-01-08T03:47:16;95151.91;;;0.08;100.00
11099;BME280;12223;42.650;23.364;2023-01-08T03:49:45;95142.06;;;0.11;100.00
11099;BME280;12223;42.650;23.364;2023-01-08T03:52:20;95147.13;;;0.30;100.00
11099;BME280;12223;42.650;23.364;2023-01-08T03:54:47;95145.47;;;0.29;100.00
11099;BME280;12223;42.650;23.364;2023-01-08T03:57:14;95138.78;;;0.27;100.00
11099;BME280;12223;42.650;23.364;2023-01-08T03:59:41;95158.09;;;0.24;100.00
11099;BME280;12223;42.650;23.364;2023-01-08T04:02:09;95138.88;;;-0.10;100.00
11099;BME280;12223;42.650;23.364;2023-01-08T04:04:36;95162.59;;;0.05;100.00
11099;BME280;12223;42.650;23.364;2023-01-08T04:07:04;95175.47;;;-0.04;100.00
11099;BME280;12223;42.650;23.364;2023-01-08T04:09:31;95170.09;;;-0.20;100.00
11099;BME280;12223;42.650;23.364;2023-01-08T04:11:58;95171.09;;;-0.03;100.00
11099;BME280;12223;42.650;23.364;2023-01-08T04:14:24;95173.59;;;-0.11;100.00
11099;BME280;12223;42.650;23.364;2023-01-08T04:16:51;95159.72;;;-0.20;100.00
11099;BME280;12223;42.650;23.364;2023-01-08T04:19:19;95166.59;;;-0.28;100.00
11099;BME280;12223;42.650;23.364;2023-01-08T04:21:49;95157.78;;;-0.18;100.00
11099;BME280;12223;42.650;23.364;2023-01-08T04:24:15;95166.53;;;-0.19;100.00
11099;BME280;12223;42.650;23.364;2023-01-08T04:26:42;95158.03;;;-0.11;100.00
11099;BME280;12223;42.650;23.364;2023-01-08T04:29:10;95169.66;;;-0.15;100.00
11099;BME280;12223;42.650;23.364;2023-01-08T04:31:37;95166.44;;;-0.27;100.00
11099;BME280;12223;42.650;23.364;2023-01-08T04:34:04;95167.25;;;-0.26;100.00
11099;BME280;12223;42.650;23.364;2023-01-08T04:36:32;95176.50;;;-0.14;100.00
11099;BME280;12223;42.650;23.364;2023-01-08T04:38:59;95181.59;;;-0.22;100.00
11099;BME280;12223;42.650;23.364;2023-01-08T04:41:25;95168.66;;;-0.32;100.00
11099;BME280;12223;42.650;23.364;2023-01-08T04:43:52;95168.00;;;-0.44;100.00
11099;BME280;12223;42.650;23.364;2023-01-08T04:46:19;95163.38;;;-0.50;100.00
11099;BME280;12223;42.650;23.364;2023-01-08T04:48:46;95154.44;;;-0.37;100.00
11099;BME280;12223;42.650;23.364;2023-01-08T04:51:12;95158.16;;;-0.40;100.00
11099;BME280;12223;42.650;23.364;2023-01-08T04:53:40;95154.91;;;-0.42;100.00
11099;BME280;12223;42.650;23.364;2023-01-08T04:56:09;95148.81;;;-0.51;100.00
11099;BME280;12223;42.650;23.364;2023-01-08T04:58:37;95155.03;;;-0.44;100.00
11099;BME280;12223;42.650;23.364;2023-01-08T05:01:11;95154.25;;;-0.54;100.00
11099;BME280;12223;42.650;23.364;2023-01-08T05:03:38;95154.66;;;-0.49;100.00
11099;BME280;12223;42.650;23.364;2023-01-08T05:06:05;95153.81;;;-0.49;100.00
11099;BME280;12223;42.650;23.364;2023-01-08T05:08:32;95153.81;;;-0.49;100.00
11099;BME280;12223;42.650;23.364;2023-01-08T05:11:00;95163.03;;;-0.27;100.00
11099;BME280;12223;42.650;23.364;2023-01-08T05:13:28;95168.59;;;-0.22;100.00
11099;BME280;12223;42.650;23.364;2023-01-08T05:15:57;95176.63;;;-0.16;100.00
11099;BME280;12223;42.650;23.364;2023-01-08T05:18:24;95181.59;;;-0.22;100.00
11099;BME280;12223;42.650;23.364;2023-01-08T05:20:51;95186.28;;;-0.35;100.00
11099;BME280;12223;42.650;23.364;2023-01-08T05:23:18;95184.97;;;-0.49;100.00
11099;BME280;12223;42.650;23.364;2023-01-08T05:25:44;95191.03;;;-0.68;100.00
11099;BME280;12223;42.650;23.364;2023-01-08T05:28:13;95187.78;;;-0.79;100.00
11099;BME280;12223;42.650;23.364;2023-01-08T05:30:40;95182.16;;;-0.75;100.00
11099;BME280;12223;42.650;23.364;2023-01-08T05:33:06;95183.94;;;-0.66;100.00
11099;BME280;12223;42.650;23.364;2023-01-08T05:35:33;95174.91;;;-0.62;100.00
11099;BME280;12223;42.650;23.364;2023-01-08T05:38:00;95184.69;;;-0.56;100.00
11099;BME280;12223;42.650;23.364;2023-01-08T05:40:27;95185.28;;;-0.62;100.00
11099;BME280;12223;42.650;23.364;2023-01-08T05:42:53;95176.31;;;-0.77;100.00
11099;BME280;12223;42.650;23.364;2023-01-08T05:45:22;95183.31;;;-0.97;100.00
11099;BME280;12223;42.650;23.364;2023-01-08T05:47:48;95180.78;;;-0.69;100.00
11099;BME280;12223;42.650;23.364;2023-01-08T05:50:15;95151.47;;;-0.79;100.00
11099;BME280;12223;42.650;23.364;2023-01-08T05:52:42;95167.41;;;-0.65;100.00
11099;BME280;12223;42.650;23.364;2023-01-08T05:55:09;95148.00;;;-0.61;100.00
11099;BME280;12223;42.650;23.364;2023-01-08T05:57:36;95161.22;;;-0.54;100.00
11099;BME280;12223;42.650;23.364;2023-01-08T06:00:03;95160.44;;;-0.64;100.00
11099;BME280;12223;42.650;23.364;2023-01-08T06:02:34;95172.63;;;-0.37;100.00
11099;BME280;12223;42.650;23.364;2023-01-08T06:05:00;95171.16;;;-0.40;100.00
11099;BME280;12223;42.650;23.364;2023-01-08T06:07:27;95174.84;;;-0.43;100.00
11099;BME280;12223;42.650;23.364;2023-01-08T06:09:54;95165.97;;;-0.40;100.00
11099;BME280;12223;42.650;23.364;2023-01-08T06:12:21;95174.72;;;-0.14;100.00
11099;BME280;12223;42.650;23.364;2023-01-08T06:14:48;95179.13;;;-0.24;100.00
11099;BME280;12223;42.650;23.364;2023-01-08T06:17:14;95170.16;;;-0.02;100.00
11099;BME280;12223;42.650;23.364;2023-01-08T06:19:42;95188.81;;;0.11;100.00
11099;BME280;12223;42.650;23.364;2023-01-08T06:22:11;95195.44;;;0.76;100.00
11099;BME280;12223;42.650;23.364;2023-01-08T06:24:38;95204.06;;;1.98;100.00
11099;BME280;12223;42.650;23.364;2023-01-08T06:27:05;95224.06;;;3.46;100.00
11099;BME280;12223;42.650;23.364;2023-01-08T06:29:32;95227.97;;;4.92;100.00
11099;BME280;12223;42.650;23.364;2023-01-08T06:31:59;95232.53;;;6.25;95.15
11099;BME280;12223;42.650;23.364;2023-01-08T06:34:25;95231.31;;;7.28;76.93
11099;BME280;12223;42.650;23.364;2023-01-08T06:36:54;95240.41;;;8.65;71.04
11099;BME280;12223;42.650;23.364;2023-01-08T06:39:20;95236.22;;;9.71;59.03
11099;BME280;12223;42.650;23.364;2023-01-08T06:41:47;95234.31;;;10.57;54.04
11099;BME280;12223;42.650;23.364;2023-01-08T06:44:14;95241.72;;;11.31;49.37
11099;BME280;12223;42.650;23.364;2023-01-08T06:46:41;95250.75;;;12.11;47.41
11099;BME280;12223;42.650;23.364;2023-01-08T06:49:08;95247.81;;;12.80;44.85
11099;BME280;12223;42.650;23.364;2023-01-08T06:51:35;95238.47;;;13.14;42.30
11099;BME280;12223;42.650;23.364;2023-01-08T06:54:03;95241.81;;;13.81;41.32
11099;BME280;12223;42.650;23.364;2023-01-08T06:56:30;95251.59;;;14.34;40.14
11099;BME280;12223;42.650;23.364;2023-01-08T06:58:57;95247.22;;;14.63;38.44
11099;BME280;12223;42.650;23.364;2023-01-08T07:01:24;95245.13;;;14.76;38.15
11099;BME280;12223;42.650;23.364;2023-01-08T07:03:50;95242.25;;;14.55;37.65
11099;BME280;12223;42.650;23.364;2023-01-08T07:06:20;95250.63;;;13.93;38.25
11099;BME280;12223;42.650;23.364;2023-01-08T07:08:47;95253.84;;;13.06;39.28
11099;BME280;12223;42.650;23.364;2023-01-08T07:11:16;95263.53;;;12.14;40.47
11099;BME280;12223;42.650;23.364;2023-01-08T07:13:42;95256.75;;;10.93;43.37
11099;BME280;12223;42.650;23.364;2023-01-08T07:16:11;95258.72;;;9.87;45.79
11099;BME280;12223;42.650;23.364;2023-01-08T07:18:38;95268.22;;;9.35;48.34
11099;BME280;12223;42.650;23.364;2023-01-08T07:21:07;95273.41;;;9.09;50.05
11099;BME280;12223;42.650;23.364;2023-01-08T07:23:34;95269.06;;;9.62;49.89
11099;BME280;12223;42.650;23.364;2023-01-08T07:26:03;95264.19;;;10.44;45.68
11099;BME280;12223;42.650;23.364;2023-01-08T07:28:32;95271.25;;;10.70;44.63
11099;BME280;12223;42.650;23.364;2023-01-08T07:31:02;95261.19;;;11.05;44.04
11099;BME280;12223;42.650;23.364;2023-01-08T07:33:29;95258.59;;;11.99;43.09
11099;BME280;12223;42.650;23.364;2023-01-08T07:35:56;95261.88;;;13.17;40.17
11099;BME280;12223;42.650;23.364;2023-01-08T07:38:23;95262.00;;;13.71;39.21
11099;BME280;12223;42.650;23.364;2023-01-08T07:40:50;95261.03;;;13.95;38.44
11099;BME280;12223;42.650;23.364;2023-01-08T07:43:17;95266.81;;;14.03;38.43
11099;BME280;12223;42.650;23.364;2023-01-08T07:45:46;95272.97;;;13.74;39.13
11099;BME280;12223;42.650;23.364;2023-01-08T07:48:12;95276.69;;;13.55;39.18
11099;BME280;12223;42.650;23.364;2023-01-08T07:50:41;95264.72;;;14.17;38.83
11099;BME280;12223;42.650;23.364;2023-01-08T07:53:09;95268.13;;;14.82;37.62
11099;BME280;12223;42.650;23.364;2023-01-08T07:55:36;95278.91;;;16.46;35.98
11099;BME280;12223;42.650;23.364;2023-01-08T07:58:07;95267.91;;;17.36;34.24
11099;BME280;12223;42.650;23.364;2023-01-08T08:00:34;95277.75;;;17.79;33.65
11099;BME280;12223;42.650;23.364;2023-01-08T08:03:04;95268.06;;;18.27;32.17
11099;BME280;12223;42.650;23.364;2023-01-08T08:05:32;95279.31;;;17.53;32.56
11099;BME280;12223;42.650;23.364;2023-01-08T08:07:59;95278.75;;;17.08;33.53
11099;BME280;12223;42.650;23.364;2023-01-08T08:10:26;95277.28;;;17.39;32.96
11099;BME280;12223;42.650;23.364;2023-01-08T08:12:53;95272.25;;;16.99;33.59
11099;BME280;12223;42.650;23.364;2023-01-08T08:15:20;95275.84;;;16.04;34.65
11099;BME280;12223;42.650;23.364;2023-01-08T08:17:47;95272.16;;;14.73;37.14
11099;BME280;12223;42.650;23.364;2023-01-08T08:20:16;95280.16;;;13.25;39.95
11099;BME280;12223;42.650;23.364;2023-01-08T08:22:43;95281.25;;;12.20;42.09
11099;BME280;12223;42.650;23.364;2023-01-08T08:25:09;95273.16;;;11.08;45.16
11099;BME280;12223;42.650;23.364;2023-01-08T08:27:36;95277.03;;;10.21;47.83
11099;BME280;12223;42.650;23.364;2023-01-08T08:30:04;95283.75;;;9.17;51.67
11099;BME280;12223;42.650;23.364;2023-01-08T08:32:31;95279.94;;;8.37;56.34
11099;BME280;12223;42.650;23.364;2023-01-08T08:34:58;95281.59;;;7.89;62.02
11099;BME280;12223;42.650;23.364;2023-01-08T08:37:29;95265.28;;;7.30;67.20
11099;BME280;12223;42.650;23.364;2023-01-08T08:39:56;95279.34;;;6.86;73.89
11099;BME280;12223;42.650;23.364;2023-01-08T08:42:22;95280.28;;;6.50;80.75
11099;BME280;12223;42.650;23.364;2023-01-08T08:44:49;95289.69;;;6.15;85.16
11099;BME280;12223;42.650;23.364;2023-01-08T08:47:16;95280.75;;;5.86;91.97
11099;BME280;12223;42.650;23.364;2023-01-08T08:49:43;95281.25;;;5.67;97.41
11099;BME280;12223;42.650;23.364;2023-01-08T08:52:10;95278.47;;;5.46;100.00
11099;BME280;12223;42.650;23.364;2023-01-08T08:54:38;95283.47;;;5.10;100.00
11099;BME280;12223;42.650;23.364;2023-01-08T08:57:06;95273.56;;;5.20;100.00
11099;BME280;12223;42.650;23.364;2023-01-08T08:59:33;95278.19;;;5.18;100.00
11099;BME280;12223;42.650;23.364;2023-01-08T09:02:00;95276.72;;;5.15;100.00
11099;BME280;12223;42.650;23.364;2023-01-08T09:04:29;95281.91;;;5.46;100.00
11099;BME280;12223;42.650;23.364;2023-01-08T09:06:55;95285.63;;;5.52;100.00
11099;BME280;12223;42.650;23.364;2023-01-08T09:09:22;95272.03;;;5.71;100.00
11099;BME280;12223;42.650;23.364;2023-01-08T09:11:51;95274.94;;;5.76;100.00
11099;BME280;12223;42.650;23.364;2023-01-08T09:14:18;95272.84;;;5.72;100.00
11099;BME280;12223;42.650;23.364;2023-01-08T09:16:45;95268.69;;;5.62;100.00
11099;BME280;12223;42.650;23.364;2023-01-08T09:19:12;95263.06;;;5.65;100.00
11099;BME280;12223;42.650;23.364;2023-01-08T09:21:39;95254.88;;;5.69;100.00
11099;BME280;12223;42.650;23.364;2023-01-08T09:24:06;95253.91;;;5.84;100.00
11099;BME280;12223;42.650;23.364;2023-01-08T09:26:33;95249.63;;;5.83;100.00
11099;BME280;12223;42.650;23.364;2023-01-08T09:29:02;95253.50;;;5.95;100.00
11099;BME280;12223;42.650;23.364;2023-01-08T09:31:29;95249.88;;;5.59;100.00
11099;BME280;12223;42.650;23.364;2023-01-08T09:33:56;95245.75;;;5.42;100.00
11099;BME280;12223;42.650;23.364;2023-01-08T09:36:23;95248.88;;;5.60;100.00
11099;BME280;12223;42.650;23.364;2023-01-08T09:38:49;95242.09;;;5.88;100.00
11099;BME280;12223;42.650;23.364;2023-01-08T09:41:18;95235.25;;;6.17;100.00
11099;BME280;12223;42.650;23.364;2023-01-08T09:43:49;95231.00;;;6.30;100.00
11099;BME280;12223;42.650;23.364;2023-01-08T09:46:20;95231.09;;;6.37;99.94
11099;BME280;12223;42.650;23.364;2023-01-08T09:48:52;95224.38;;;6.64;99.57
11099;BME280;12223;42.650;23.364;2023-01-08T09:51:20;95224.50;;;6.77;94.01
11099;BME280;12223;42.650;23.364;2023-01-08T09:53:54;95216.75;;;6.69;93.36
11099;BME280;12223;42.650;23.364;2023-01-08T09:56:21;95205.19;;;6.63;94.06
11099;BME280;12223;42.650;23.364;2023-01-08T09:58:48;95200.03;;;6.55;93.96
11099;BME280;12223;42.650;23.364;2023-01-08T10:01:19;95209.06;;;6.53;94.36
11099;BME280;12223;42.650;23.364;2023-01-08T10:03:49;95195.63;;;6.41;95.77
11099;BME280;12223;42.650;23.364;2023-01-08T10:06:19;95197.00;;;6.37;96.34
11099;BME280;12223;42.650;23.364;2023-01-08T10:08:48;95193.72;;;6.35;97.49
11099;BME280;12223;42.650;23.364;2023-01-08T10:11:15;95194.66;;;6.13;99.01
11099;BME280;12223;42.650;23.364;2023-01-08T10:13:45;95185.38;;;6.46;98.44
11099;BME280;12223;42.650;23.364;2023-01-08T10:16:19;95187.63;;;6.85;96.33
11099;BME280;12223;42.650;23.364;2023-01-08T10:18:48;95186.22;;;7.25;92.05
11099;BME280;12223;42.650;23.364;2023-01-08T10:21:16;95175.91;;;7.23;90.42
11099;BME280;12223;42.650;23.364;2023-01-08T10:23:50;95174.13;;;7.52;88.10
11099;BME280;12223;42.650;23.364;2023-01-08T10:26:25;95173.34;;;7.30;86.77
11099;BME280;12223;42.650;23.364;2023-01-08T10:29:05;95172.56;;;7.36;87.47
11099;BME280;12223;42.650;23.364;2023-01-08T10:31:33;95164.16;;;7.19;88.51
11099;BME280;12223;42.650;23.364;2023-01-08T10:34:09;95160.31;;;7.43;86.53
11099;BME280;12223;42.650;23.364;2023-01-08T10:36:39;95159.19;;;7.59;84.78
11099;BME280;12223;42.650;23.364;2023-01-08T10:39:17;95151.06;;;7.54;83.59
11099;BME280;12223;42.650;23.364;2023-01-08T10:41:47;95147.59;;;7.47;85.59
11099;BME280;12223;42.650;23.364;2023-01-08T10:44:16;95133.91;;;7.30;85.56
11099;BME280;12223;42.650;23.364;2023-01-08T10:46:45;95138.34;;;7.30;86.70
11099;BME280;12223;42.650;23.364;2023-01-08T10:49:17;95134.25;;;7.76;84.30
11099;BME280;12223;42.650;23.364;2023-01-08T10:51:50;95139.56;;;7.55;83.64
11099;BME280;12223;42.650;23.364;2023-01-08T10:54:32;95116.97;;;7.60;84.21
11099;BME280;12223;42.650;23.364;2023-01-08T10:56:59;95130.41;;;7.79;82.31
11099;BME280;12223;42.650;23.364;2023-01-08T10:59:26;95124.69;;;7.68;82.46
11099;BME280;12223;42.650;23.364;2023-01-08T11:01:53;95123.78;;;7.83;82.38
11099;BME280;12223;42.650;23.364;2023-01-08T11:04:27;95113.31;;;7.89;80.84
11099;BME280;12223;42.650;23.364;2023-01-08T11:06:59;95118.78;;;7.60;81.82
11099;BME280;12223;42.650;23.364;2023-01-08T11:09:29;95108.06;;;7.96;81.86
11099;BME280;12223;42.650;23.364;2023-01-08T11:11:56;95111.13;;;7.99;79.03
11099;BME280;12223;42.650;23.364;2023-01-08T11:14:26;95103.75;;;8.29;77.64
11099;BME280;12223;42.650;23.364;2023-01-08T11:16:55;95111.44;;;8.24;75.47
11099;BME280;12223;42.650;23.364;2023-01-08T11:19:25;95104.75;;;8.28;74.15
11099;BME280;12223;42.650;23.364;2023-01-08T11:21:54;95099.78;;;8.33;74.53
11099;BME280;12223;42.650;23.364;2023-01-08T11:24:24;95102.59;;;8.32;73.33
11099;BME280;12223;42.650;23.364;2023-01-08T11:26:54;95105.13;;;8.19;75.21
11099;BME280;12223;42.650;23.364;2023-01-08T11:29:29;95105.91;;;8.13;74.42
11099;BME280;12223;42.650;23.364;2023-01-08T11:32:07;95106.53;;;8.15;75.29
11099;BME280;12223;42.650;23.364;2023-01-08T11:34:43;95092.38;;;8.22;75.75
11099;BME280;12223;42.650;23.364;2023-01-08T11:37:19;95090.56;;;8.23;75.66
11099;BME280;12223;42.650;23.364;2023-01-08T11:39:47;95096.56;;;8.44;74.42
11099;BME280;12223;42.650;23.364;2023-01-08T11:42:25;95086.00;;;8.38;72.93
11099;BME280;12223;42.650;23.364;2023-01-08T11:45:08;95080.34;;;8.47;72.81
11099;BME280;12223;42.650;23.364;2023-01-08T11:47:54;95073.09;;;8.56;71.86
11099;BME280;12223;42.650;23.364;2023-01-08T11:50:28;95077.16;;;8.59;72.15
11099;BME280;12223;42.650;23.364;2023-01-08T11:53:14;95072.09;;;8.57;72.79
11099;BME280;12223;42.650;23.364;2023-01-08T11:55:56;95069.47;;;8.57;72.35
11099;BME280;12223;42.650;23.364;2023-01-08T11:58:32;95061.16;;;8.67;71.94
11099;BME280;12223;42.650;23.364;2023-01-08T12:01:30;95075.16;;;8.87;70.75
11099;BME280;12223;42.650;23.364;2023-01-08T12:06:59;95059.56;;;8.92;70.92
11099;BME280;12223;42.650;23.364;2023-01-08T12:09:37;95049.84;;;8.99;70.81
11099;BME280;12223;42.650;23.364;2023-01-08T12:12:15;95059.19;;;9.08;70.55
11099;BME280;12223;42.650;23.364;2023-01-08T12:14:53;95045.59;;;9.24;69.22
11099;BME280;12223;42.650;23.364;2023-01-08T12:20:27;95041.56;;;9.22;67.47
11099;BME280;12223;42.650;23.364;2023-01-08T12:23:00;95037.50;;;9.19;67.61
11099;BME280;12223;42.650;23.364;2023-01-08T12:25:56;95040.72;;;9.48;67.55
11099;BME280;12223;42.650;23.364;2023-01-08T12:28:37;95034.31;;;9.82;65.38
11099;BME280;12223;42.650;23.364;2023-01-08T12:31:26;95024.72;;;9.94;63.18
11099;BME280;12223;42.650;23.364;2023-01-08T12:34:01;95030.03;;;9.87;62.61
11099;BME280;12223;42.650;23.364;2023-01-08T12:36:32;95025.34;;;9.96;62.85
11099;BME280;12223;42.650;23.364;2023-01-08T12:39:07;95028.81;;;9.90;62.58
11099;BME280;12223;42.650;23.364;2023-01-08T12:41:36;95025.03;;;9.66;63.41
11099;BME280;12223;42.650;23.364;2023-01-08T12:44:06;95021.53;;;9.85;62.69
11099;BME280;12223;42.650;23.364;2023-01-08T12:46:38;95023.53;;;9.96;62.24
11099;BME280;12223;42.650;23.364;2023-01-08T12:49:10;95017.63;;;9.94;61.55
11099;BME280;12223;42.650;23.364;2023-01-08T12:51:45;95021.50;;;9.98;61.26
11099;BME280;12223;42.650;23.364;2023-01-08T12:54:24;95015.59;;;9.96;61.82
11099;BME280;12223;42.650;23.364;2023-01-08T12:57:01;95022.84;;;10.07;60.12
11099;BME280;12223;42.650;23.364;2023-01-08T12:59:38;95010.56;;;9.88;60.85
11099;BME280;12223;42.650;23.364;2023-01-08T13:02:17;95019.84;;;10.04;60.89
11099;BME280;12223;42.650;23.364;2023-01-08T13:04:49;95009.66;;;10.07;60.43
11099;BME280;12223;42.650;23.364;2023-01-08T13:07:18;95005.84;;;10.03;60.63